Time;durP1;ratioP1;P1;durP2;ratioP2;P2;SDS_P1;SDS_P2;PMS_P1;PMS_P2;Temp;Humidity;BMP_temperature;BMP_pressure;BME280_temperature;BME280_humidity;BME280_pressure;Samples;Min_cycle;Max_cycle;Signal;HPM_P1;HPM_P2
2021/12/09 00:01:49;;;;;;;5.43;2.17;;;3.20;99.90;;;;;;5009003;28;20022;-62
2021/12/09 00:04:24;;;;;;;5.88;2.08;;;3.20;99.90;;;;;;5010125;28;20644;-62
2021/12/09 00:06:50;;;;;;;4.78;1.83;;;3.20;99.90;;;;;;5009514;28;20061;-62
2021/12/09 00:09:18;;;;;;;5.93;2.33;;;3.20;99.90;;;;;;5010670;28;20065;-62
2021/12/09 00:11:46;;;;;;;13.55;3.15;;;3.20;99.90;;;;;;5011897;28;20022;-62
2021/12/09 00:14:26;;;;;;;8.48;2.88;;;3.20;99.90;;;;;;5012357;28;20041;-62
2021/12/09 00:16:55;;;;;;;6.53;2.28;;;3.20;99.90;;;;;;5009593;28;20080;-62
2021/12/09 00:19:21;;;;;;;5.85;2.42;;;3.20;99.90;;;;;;5010362;28;20441;-62
2021/12/09 00:21:47;;;;;;;11.23;3.00;;;3.20;99.90;;;;;;5010843;28;20379;-63
2021/12/09 00:24:12;;;;;;;8.98;2.25;;;3.10;99.90;;;;;;5011160;28;20047;-63
2021/12/09 00:26:39;;;;;;;13.70;3.53;;;3.20;99.90;;;;;;5011587;28;20386;-62
2021/12/09 00:29:06;;;;;;;9.63;3.13;;;3.10;99.90;;;;;;5010686;28;20048;-62
2021/12/09 00:31:32;;;;;;;10.05;2.67;;;3.10;99.90;;;;;;5006455;28;20113;-62
2021/12/09 00:33:59;;;;;;;6.13;2.03;;;3.10;99.90;;;;;;5009244;28;20113;-62
2021/12/09 00:36:32;;;;;;;10.82;2.33;;;3.00;99.90;;;;;;5011499;28;20489;-62
2021/12/09 00:38:59;;;;;;;15.02;2.67;;;3.00;99.90;;;;;;5010647;28;20030;-62
2021/12/09 00:41:25;;;;;;;12.27;2.88;;;3.00;99.90;;;;;;5011602;28;20486;-62
2021/12/09 00:43:51;;;;;;;5.20;2.30;;;3.00;99.90;;;;;;5010530;28;20045;-62
2021/12/09 00:46:17;;;;;;;12.38;2.50;;;3.00;99.90;;;;;;5011096;28;20037;-62
2021/12/09 00:48:42;;;;;;;7.47;2.63;;;2.90;99.90;;;;;;5011352;28;20029;-62
2021/12/09 00:51:09;;;;;;;7.30;2.20;;;3.00;99.90;;;;;;5010366;28;20033;-62
2021/12/09 00:53:36;;;;;;;4.95;2.35;;;2.90;99.90;;;;;;5011185;28;20405;-64
2021/12/09 00:56:04;;;;;;;6.95;1.88;;;2.90;99.90;;;;;;5012882;28;20075;-62
2021/12/09 00:58:29;;;;;;;10.75;2.53;;;2.90;99.90;;;;;;5003206;28;20497;-62
2021/12/09 01:00:55;;;;;;;5.72;2.17;;;2.80;99.90;;;;;;5010129;28;20563;-61
2021/12/09 01:03:21;;;;;;;8.10;2.58;;;2.90;99.90;;;;;;5010991;28;20103;-62
2021/12/09 01:05:47;;;;;;;9.90;2.78;;;2.80;99.90;;;;;;5010308;28;20444;-61
2021/12/09 01:08:13;;;;;;;6.88;2.25;;;2.80;99.90;;;;;;5010439;28;20026;-62
2021/12/09 01:10:39;;;;;;;8.43;2.72;;;2.80;99.90;;;;;;5010641;28;20041;-62
2021/12/09 01:13:06;;;;;;;4.40;2.47;;;2.90;99.90;;;;;;5009652;28;20030;-62
2021/12/09 01:15:31;;;;;;;6.60;1.98;;;2.90;99.90;;;;;;5012117;28;20038;-63
2021/12/09 01:17:57;;;;;;;8.80;2.92;;;3.00;99.90;;;;;;5009844;28;20044;-62
2021/12/09 01:20:25;;;;;;;7.72;3.13;;;3.00;99.90;;;;;;5010402;28;20088;-62
2021/12/09 01:22:56;;;;;;;7.57;2.22;;;3.10;99.90;;;;;;5009121;28;20038;-62
2021/12/09 01:25:24;;;;;;;6.60;2.45;;;3.20;99.90;;;;;;5010154;28;20045;-62
2021/12/09 01:27:53;;;;;;;10.55;2.33;;;3.20;99.90;;;;;;5009885;28;20030;-64
2021/12/09 01:30:20;;;;;;;6.15;2.20;;;3.20;99.90;;;;;;5010576;28;20561;-62
2021/12/09 01:32:51;;;;;;;5.28;2.08;;;3.10;99.90;;;;;;5009902;28;20026;-63
2021/12/09 01:35:18;;;;;;;;;;;3.10;99.90;;;;;;5011669;28;20044;-63
2021/12/09 01:37:45;;;;;;;9.07;3.30;;;3.10;99.90;;;;;;5010301;28;19917;-62
2021/12/09 01:40:11;;;;;;;5.15;1.85;;;3.10;99.90;;;;;;5009740;28;20034;-62
2021/12/09 01:42:37;;;;;;;6.18;2.53;;;3.00;99.90;;;;;;5010097;28;20030;-62
2021/12/09 01:45:05;;;;;;;4.43;2.00;;;3.00;99.90;;;;;;5009201;28;20041;-64
2021/12/09 01:47:31;;;;;;;10.65;3.00;;;3.00;99.90;;;;;;5010189;28;20038;-62
2021/12/09 01:49:58;;;;;;;8.13;2.30;;;3.00;99.90;;;;;;5005111;28;20037;-62
2021/12/09 01:52:24;;;;;;;13.73;3.00;;;3.00;99.90;;;;;;5009874;28;20054;-62
2021/12/09 01:54:50;;;;;;;11.45;3.05;;;2.90;99.90;;;;;;5009251;28;20030;-64
2021/12/09 01:57:16;;;;;;;4.88;1.83;;;2.90;99.90;;;;;;5013186;28;20048;-62
2021/12/09 01:59:41;;;;;;;6.47;2.10;;;2.90;99.90;;;;;;5009931;28;20030;-62
2021/12/09 02:02:07;;;;;;;9.18;2.70;;;2.90;99.90;;;;;;5006995;28;20049;-62
2021/12/09 02:04:33;;;;;;;10.52;2.90;;;2.90;99.90;;;;;;5009810;28;20061;-62
2021/12/09 02:06:58;;;;;;;7.60;2.00;;;2.80;99.90;;;;;;5008880;28;20030;-62
2021/12/09 02:09:24;;;;;;;7.80;2.10;;;2.80;99.90;;;;;;5009760;28;20113;-62
2021/12/09 02:11:49;;;;;;;6.55;2.13;;;2.80;99.90;;;;;;5007111;28;20088;-64
2021/12/09 02:14:15;;;;;;;7.05;2.63;;;2.80;99.90;;;;;;5011334;28;20035;-62
2021/12/09 02:16:42;;;;;;;4.97;2.28;;;2.70;99.90;;;;;;5003482;28;20034;-62
2021/12/09 02:19:10;;;;;;;5.78;2.33;;;2.70;99.90;;;;;;5009102;28;20037;-62
2021/12/09 02:21:36;;;;;;;10.70;2.50;;;2.70;99.90;;;;;;5009451;28;20026;-62
2021/12/09 02:24:07;;;;;;;6.97;2.17;;;2.70;99.90;;;;;;5008710;28;20545;-61
2021/12/09 02:26:38;;;;;;;8.38;2.30;;;2.70;99.90;;;;;;5006727;28;20042;-62
2021/12/09 02:29:05;;;;;;;5.05;1.73;;;2.70;99.90;;;;;;5008465;28;20034;-61
2021/12/09 02:31:32;;;;;;;5.15;1.85;;;2.70;99.90;;;;;;5009232;28;20034;-62
2021/12/09 02:33:59;;;;;;;12.35;2.30;;;2.70;99.90;;;;;;5006879;28;20066;-62
2021/12/09 02:36:25;;;;;;;3.42;1.70;;;2.70;99.90;;;;;;5005086;28;20042;-62
2021/12/09 02:38:51;;;;;;;7.13;2.10;;;2.70;99.90;;;;;;5008458;28;20046;-63
2021/12/09 02:41:21;;;;;;;12.05;2.92;;;2.70;99.90;;;;;;5007720;28;20030;-62
2021/12/09 02:43:50;;;;;;;11.50;2.30;;;2.70;99.90;;;;;;5007320;28;20042;-62
2021/12/09 02:46:17;;;;;;;6.47;1.95;;;2.60;99.90;;;;;;5008612;28;20327;-63
2021/12/09 02:48:43;;;;;;;6.70;1.92;;;2.60;99.90;;;;;;5013581;28;20032;-62
2021/12/09 02:51:10;;;;;;;4.55;2.05;;;2.60;99.90;;;;;;5011312;28;20026;-62
2021/12/09 02:53:37;;;;;;;7.15;2.45;;;2.60;99.90;;;;;;5010792;28;20049;-63
2021/12/09 02:56:03;;;;;;;11.45;2.28;;;2.60;99.90;;;;;;5007817;28;20042;-62
2021/12/09 02:58:29;;;;;;;8.52;2.08;;;2.60;99.90;;;;;;5012212;28;20395;-61
2021/12/09 03:01:01;;;;;;;4.13;1.90;;;2.60;99.90;;;;;;5008193;28;20025;-65
2021/12/09 03:03:27;;;;;;;7.78;1.85;;;2.50;99.90;;;;;;5005298;28;20075;-62
2021/12/09 03:05:56;;;;;;;7.63;2.38;;;2.60;99.90;;;;;;5007291;28;20038;-62
2021/12/09 03:08:33;;;;;;;11.15;2.60;;;2.60;99.90;;;;;;5008995;28;20033;-61
2021/12/09 03:11:02;;;;;;;4.95;1.65;;;2.50;99.90;;;;;;5000733;28;20061;-63
2021/12/09 03:13:28;;;;;;;13.23;3.75;;;2.50;99.90;;;;;;5008534;28;20409;-62
2021/12/09 03:15:53;;;;;;;6.32;1.75;;;2.50;99.90;;;;;;5009084;28;20128;-62
2021/12/09 03:18:19;;;;;;;13.93;2.30;;;2.50;99.90;;;;;;5009015;28;20026;-62
2021/12/09 03:20:44;;;;;;;6.93;1.98;;;2.50;99.90;;;;;;5007334;28;20053;-62
2021/12/09 03:23:10;;;;;;;6.88;1.88;;;2.50;99.90;;;;;;5010286;28;20696;-62
2021/12/09 03:25:36;;;;;;;6.25;1.88;;;2.50;99.90;;;;;;5008716;28;20034;-61
2021/12/09 03:28:01;;;;;;;6.18;2.00;;;2.50;99.90;;;;;;5006456;28;20042;-63
2021/12/09 03:30:27;;;;;;;6.43;1.63;;;2.50;99.90;;;;;;5008741;28;20134;-61
2021/12/09 03:32:54;;;;;;;9.05;2.10;;;2.50;99.90;;;;;;5007737;28;20058;-61
2021/12/09 03:35:19;;;;;;;10.00;2.50;;;2.50;99.90;;;;;;5008662;28;20046;-62
2021/12/09 03:37:45;;;;;;;8.77;2.08;;;2.50;99.90;;;;;;5010265;28;20103;-62
2021/12/09 03:40:12;;;;;;;5.88;2.10;;;2.50;99.90;;;;;;5010386;28;20041;-62
2021/12/09 03:42:39;;;;;;;5.28;1.70;;;2.60;99.90;;;;;;5012522;28;20038;-62
2021/12/09 03:45:06;;;;;;;6.47;2.05;;;2.50;99.90;;;;;;5011280;28;20044;-62
2021/12/09 03:47:32;;;;;;;8.57;2.78;;;2.50;99.90;;;;;;5010977;28;20382;-62
2021/12/09 03:49:58;;;;;;;10.82;3.20;;;2.50;99.90;;;;;;5011675;28;20041;-63
2021/12/09 03:52:26;;;;;;;6.85;2.00;;;2.50;99.90;;;;;;5012041;28;20026;-62
2021/12/09 03:54:52;;;;;;;11.57;1.73;;;2.50;99.90;;;;;;5006287;28;20026;-64
2021/12/09 03:57:18;;;;;;;3.75;1.55;;;2.50;99.90;;;;;;5013498;28;20025;-62
2021/12/09 03:59:46;;;;;;;8.25;1.77;;;2.50;99.90;;;;;;5012238;28;20038;-63
2021/12/09 04:02:12;;;;;;;5.20;1.67;;;2.50;99.90;;;;;;5011227;28;20044;-62
2021/12/09 04:04:39;;;;;;;9.75;2.33;;;2.50;99.90;;;;;;5011992;28;20038;-62
2021/12/09 04:07:05;;;;;;;10.57;1.63;;;2.50;99.90;;;;;;5010491;28;20653;-62
2021/12/09 04:09:31;;;;;;;6.75;2.47;;;2.50;99.90;;;;;;5012110;28;20138;-62
2021/12/09 04:11:56;;;;;;;7.55;1.98;;;2.50;99.90;;;;;;5011214;28;20029;-63
2021/12/09 04:14:22;;;;;;;5.75;2.05;;;2.50;99.90;;;;;;5012337;28;20026;-63
2021/12/09 04:16:49;;;;;;;7.25;2.10;;;2.50;99.90;;;;;;5007504;28;20037;-63
2021/12/09 04:19:16;;;;;;;10.23;2.25;;;2.50;99.90;;;;;;5019998;28;20123;-62
2021/12/09 04:21:43;;;;;;;7.32;2.33;;;2.40;99.90;;;;;;5013512;28;20046;-62
2021/12/09 04:24:11;;;;;;;12.73;1.95;;;2.40;99.90;;;;;;5010822;28;20037;-62
2021/12/09 04:26:42;;;;;;;7.32;2.58;;;2.40;99.90;;;;;;5011593;28;20100;-62
2021/12/09 04:29:08;;;;;;;5.43;1.55;;;2.30;99.90;;;;;;5010776;28;20569;-63
2021/12/09 04:31:35;;;;;;;12.00;3.20;;;2.30;99.90;;;;;;5011571;28;20030;-63
2021/12/09 04:34:01;;;;;;;6.13;1.98;;;2.30;99.90;;;;;;5010215;28;20109;-62
2021/12/09 04:36:27;;;;;;;8.75;2.00;;;2.40;99.90;;;;;;5011439;28;20033;-62
2021/12/09 04:38:54;;;;;;;12.45;2.55;;;2.30;99.90;;;;;;5010876;28;20494;-62
2021/12/09 04:41:20;;;;;;;10.10;1.77;;;2.40;99.90;;;;;;5011522;28;20029;-62
2021/12/09 04:43:46;;;;;;;9.82;1.92;;;2.40;99.90;;;;;;5011086;28;20409;-62
2021/12/09 04:46:13;;;;;;;5.20;1.70;;;2.40;99.90;;;;;;5010383;28;20502;-62
2021/12/09 04:48:39;;;;;;;7.18;2.17;;;2.40;99.90;;;;;;5010344;28;20034;-62
2021/12/09 04:51:05;;;;;;;5.93;1.63;;;2.30;99.90;;;;;;5010026;28;20032;-62
2021/12/09 04:53:32;;;;;;;11.02;2.35;;;2.40;99.90;;;;;;5010806;28;20494;-62
2021/12/09 04:55:58;;;;;;;16.20;2.42;;;2.40;99.90;;;;;;5010806;28;20042;-64
2021/12/09 04:58:24;;;;;;;7.13;1.85;;;2.40;99.90;;;;;;5010996;28;20584;-62
2021/12/09 05:00:51;;;;;;;10.27;2.55;;;2.30;99.90;;;;;;5010737;28;20056;-62
2021/12/09 05:03:17;;;;;;;7.85;2.10;;;2.30;99.90;;;;;;5006774;28;20727;-62
2021/12/09 05:05:50;;;;;;;6.57;1.65;;;2.30;99.90;;;;;;5010774;28;20065;-62
2021/12/09 05:08:20;;;;;;;4.93;1.50;;;2.30;99.90;;;;;;5005212;28;20037;-62
2021/12/09 05:11:00;;;;;;;8.82;2.25;;;2.30;99.90;;;;;;5007069;28;20040;-62
2021/12/09 05:13:28;;;;;;;13.60;2.33;;;2.30;99.90;;;;;;5006107;28;20030;-62
2021/12/09 05:15:55;;;;;;;10.45;2.20;;;2.30;99.90;;;;;;5009817;28;20092;-62
2021/12/09 05:18:21;;;;;;;9.23;2.17;;;2.30;99.90;;;;;;5010817;28;20041;-62
2021/12/09 05:20:47;;;;;;;6.55;2.00;;;2.30;99.90;;;;;;5009340;28;20117;-62
2021/12/09 05:23:14;;;;;;;8.40;2.47;;;2.20;99.90;;;;;;5009844;28;20458;-62
2021/12/09 05:25:40;;;;;;;13.15;2.38;;;2.30;99.90;;;;;;5009905;28;20072;-62
2021/12/09 05:28:08;;;;;;;4.22;1.65;;;2.20;99.90;;;;;;5009679;28;20061;-62
2021/12/09 05:32:07;;;;;;;4.25;1.50;;;2.20;99.90;;;;;;5010078;28;20079;-62
2021/12/09 05:33:27;;;;;;;7.30;1.75;;;2.20;99.90;;;;;;5007813;28;20034;-61
2021/12/09 05:35:54;;;;;;;9.00;2.05;;;2.20;99.90;;;;;;5008811;28;20033;-63
2021/12/09 05:38:20;;;;;;;10.40;2.42;;;2.20;99.90;;;;;;5008288;28;20041;-62
2021/12/09 05:40:46;;;;;;;7.47;1.55;;;2.20;99.90;;;;;;5008244;28;20053;-62
2021/12/09 05:43:13;;;;;;;7.82;1.83;;;2.20;99.90;;;;;;5007801;28;20087;-62
2021/12/09 05:45:38;;;;;;;8.75;1.52;;;2.20;99.90;;;;;;5007398;28;20038;-63
2021/12/09 05:48:07;;;;;;;6.43;2.00;;;2.10;99.90;;;;;;5008456;28;20568;-62
2021/12/09 05:50:33;;;;;;;8.25;2.63;;;2.10;99.90;;;;;;5009895;28;20092;-63
2021/12/09 05:52:59;;;;;;;7.05;2.47;;;2.10;99.90;;;;;;5007417;28;20034;-62
2021/12/09 05:55:24;;;;;;;8.82;2.00;;;2.10;99.90;;;;;;5009397;28;20375;-62
2021/12/09 05:57:50;;;;;;;5.18;1.70;;;2.20;99.90;;;;;;5009769;28;20034;-62
2021/12/09 06:00:16;;;;;;;8.40;1.55;;;2.10;99.90;;;;;;5009777;28;20034;-62
2021/12/09 06:02:42;;;;;;;9.30;1.52;;;2.10;99.90;;;;;;5004559;28;20033;-62
2021/12/09 06:05:08;;;;;;;7.85;1.30;;;2.10;99.90;;;;;;5008670;28;20034;-62
2021/12/09 06:07:33;;;;;;;9.70;1.55;;;2.20;99.90;;;;;;5006254;28;20038;-62
2021/12/09 06:10:01;;;;;;;7.45;1.67;;;2.10;99.90;;;;;;5008373;28;20034;-62
2021/12/09 06:12:27;;;;;;;8.30;1.52;;;2.10;99.90;;;;;;5003775;28;20074;-63
2021/12/09 06:14:53;;;;;;;6.93;1.73;;;2.10;99.90;;;;;;5003222;28;20486;-62
2021/12/09 06:17:18;;;;;;;8.70;1.40;;;2.10;99.90;;;;;;5006310;28;20037;-62
2021/12/09 06:19:44;;;;;;;5.88;1.25;;;2.10;99.90;;;;;;5005752;28;20402;-62
2021/12/09 06:22:10;;;;;;;6.68;1.90;;;2.20;99.90;;;;;;5002268;28;20117;-64
2021/12/09 06:24:35;;;;;;;9.30;1.42;;;2.20;99.90;;;;;;5001542;28;20411;-62
2021/12/09 06:27:03;;;;;;;9.00;2.10;;;2.20;99.90;;;;;;5005739;28;20128;-62
2021/12/09 06:29:28;;;;;;;4.03;1.42;;;2.20;99.90;;;;;;5002788;28;20479;-63
2021/12/09 06:31:54;;;;;;;8.00;2.55;;;2.20;99.90;;;;;;5002539;28;20081;-62
2021/12/09 06:34:20;;;;;;;5.35;1.58;;;2.10;99.90;;;;;;5008034;28;20040;-63
2021/12/09 06:36:46;;;;;;;7.47;1.95;;;2.20;99.90;;;;;;5006524;28;20037;-62
2021/12/09 06:39:12;;;;;;;8.65;1.83;;;2.20;99.90;;;;;;5007030;28;20030;-62
2021/12/09 06:41:38;;;;;;;7.45;1.40;;;2.10;99.90;;;;;;5005380;28;20113;-62
2021/12/09 06:44:04;;;;;;;9.13;2.10;;;2.10;99.90;;;;;;5002324;28;20033;-62
2021/12/09 06:46:30;;;;;;;9.07;1.65;;;2.10;99.90;;;;;;5003981;28;20099;-62
2021/12/09 06:48:57;;;;;;;7.93;1.58;;;2.10;99.90;;;;;;5004873;28;20100;-64
2021/12/09 06:51:23;;;;;;;8.55;2.00;;;2.10;99.90;;;;;;5006496;28;20379;-62
2021/12/09 06:53:48;;;;;;;5.65;1.65;;;2.10;99.90;;;;;;5003686;28;20041;-62
2021/12/09 06:56:14;;;;;;;6.75;1.35;;;2.10;99.90;;;;;;5007185;28;20417;-62
2021/12/09 06:58:40;;;;;;;5.05;1.67;;;2.10;99.90;;;;;;4995601;28;20030;-63
2021/12/09 07:01:07;;;;;;;7.97;1.67;;;2.10;99.90;;;;;;5005774;28;20037;-62
2021/12/09 07:03:34;;;;;;;6.88;1.77;;;2.10;99.90;;;;;;5006261;28;20077;-62
2021/12/09 07:06:05;;;;;;;5.40;1.33;;;2.00;99.90;;;;;;5000058;28;20425;-62
2021/12/09 07:08:32;;;;;;;6.40;1.65;;;2.10;99.90;;;;;;5006412;28;20029;-62
2021/12/09 07:10:57;;;;;;;9.38;1.70;;;2.10;99.90;;;;;;5000942;28;20494;-62
2021/12/09 07:13:23;;;;;;;4.78;1.70;;;2.10;99.90;;;;;;5005455;28;20106;-62
2021/12/09 07:15:49;;;;;;;19.30;3.08;;;2.10;99.90;;;;;;5000629;28;20030;-63
2021/12/09 07:18:15;;;;;;;6.95;1.65;;;2.10;99.90;;;;;;5004289;28;20403;-62
2021/12/09 07:20:40;;;;;;;10.70;2.42;;;2.10;99.90;;;;;;5006118;28;20402;-63
2021/12/09 07:23:06;;;;;;;10.50;2.08;;;2.00;99.90;;;;;;5001403;28;20041;-63
2021/12/09 07:25:32;;;;;;;5.10;1.65;;;2.00;99.90;;;;;;5006110;28;20046;-63
2021/12/09 07:27:58;;;;;;;9.82;1.92;;;2.00;99.90;;;;;;5004266;28;20096;-62
2021/12/09 07:30:25;;;;;;;9.75;2.15;;;2.00;99.90;;;;;;5006510;28;20080;-62
2021/12/09 07:32:51;;;;;;;8.05;1.67;;;2.00;99.90;;;;;;5002262;28;20127;-64
2021/12/09 07:35:18;;;;;;;6.68;1.85;;;2.00;99.90;;;;;;5002820;28;20038;-62
2021/12/09 07:37:44;;;;;;;5.97;2.28;;;2.00;99.90;;;;;;5005003;28;20034;-62
2021/12/09 07:40:14;;;;;;;9.13;1.90;;;2.00;99.90;;;;;;5002755;28;20108;-63
2021/12/09 07:42:40;;;;;;;11.95;3.35;;;2.00;99.90;;;;;;4999506;28;20045;-62
2021/12/09 07:45:07;;;;;;;9.15;3.00;;;2.00;99.90;;;;;;5004403;28;20045;-62
2021/12/09 07:47:33;;;;;;;6.78;1.80;;;2.10;99.90;;;;;;5000814;28;20041;-62
2021/12/09 07:49:59;;;;;;;5.82;2.08;;;2.10;99.90;;;;;;5004766;28;20037;-63
2021/12/09 07:52:25;;;;;;;11.35;1.67;;;2.20;99.90;;;;;;5005570;28;20382;-62
2021/12/09 07:54:51;;;;;;;6.57;1.70;;;2.30;99.90;;;;;;5001983;28;20042;-62
2021/12/09 07:57:17;;;;;;;9.43;1.80;;;2.30;99.90;;;;;;5002940;28;20030;-62
2021/12/09 07:59:42;;;;;;;16.02;2.65;;;2.40;99.90;;;;;;5004475;28;20041;-63
2021/12/09 08:02:09;;;;;;;8.15;1.75;;;2.50;99.90;;;;;;5001524;28;20145;-62
2021/12/09 08:04:35;;;;;;;8.30;1.90;;;2.50;99.90;;;;;;4999576;28;20387;-62
2021/12/09 08:07:01;;;;;;;10.85;2.05;;;2.60;99.90;;;;;;5000618;28;20073;-62
2021/12/09 08:09:27;;;;;;;6.88;1.73;;;2.60;99.90;;;;;;5004023;28;20113;-62
2021/12/09 08:11:53;;;;;;;5.50;2.08;;;2.60;99.90;;;;;;5000016;28;20018;-63
2021/12/09 08:14:19;;;;;;;7.43;2.40;;;2.60;99.90;;;;;;5000430;28;20437;-62
2021/12/09 08:16:45;;;;;;;4.25;1.75;;;2.60;99.90;;;;;;5003195;28;20034;-61
2021/12/09 08:19:14;;;;;;;6.90;1.73;;;2.60;99.90;;;;;;4998561;28;20049;-62
2021/12/09 08:21:40;;;;;;;9.02;1.60;;;2.60;99.90;;;;;;5005096;28;20026;-62
2021/12/09 08:24:09;;;;;;;8.15;2.35;;;2.60;99.90;;;;;;5002826;28;20026;-62
2021/12/09 08:26:36;;;;;;;9.93;1.98;;;2.70;99.90;;;;;;5009245;28;20201;-62
2021/12/09 08:29:03;;;;;;;8.00;2.55;;;2.70;99.90;;;;;;5002825;28;20132;-62
2021/12/09 08:31:32;;;;;;;18.25;2.95;;;2.70;99.90;;;;;;5011194;28;20041;-62
2021/12/09 08:33:59;;;;;;;8.00;2.03;;;2.90;99.90;;;;;;5007625;28;20042;-62
2021/12/09 08:36:25;;;;;;;4.43;1.75;;;3.00;99.90;;;;;;5010070;28;20026;-62
2021/12/09 08:38:50;;;;;;;4.00;1.40;;;3.00;99.90;;;;;;5008830;28;20037;-62
2021/12/09 08:41:18;;;;;;;8.77;2.03;;;3.00;99.90;;;;;;5010584;28;20618;-62
2021/12/09 08:43:45;;;;;;;7.22;1.90;;;3.10;99.90;;;;;;5005184;28;20034;-62
2021/12/09 08:46:11;;;;;;;8.45;2.53;;;3.10;99.90;;;;;;5007047;28;20044;-62
2021/12/09 08:48:36;;;;;;;8.50;1.73;;;3.10;99.90;;;;;;5003418;28;20038;-62
2021/12/09 08:51:02;;;;;;;5.35;1.85;;;3.20;99.90;;;;;;5011932;28;20056;-62
2021/12/09 08:53:28;;;;;;;7.45;2.25;;;3.20;99.90;;;;;;5006936;28;20041;-62
2021/12/09 08:55:54;;;;;;;5.55;2.17;;;3.20;99.90;;;;;;5007126;28;20033;-63
2021/12/09 08:58:21;;;;;;;6.75;2.30;;;3.30;99.90;;;;;;5004126;28;20037;-62
2021/12/09 09:00:49;;;;;;;7.82;1.98;;;3.40;99.90;;;;;;5001389;28;20125;-62
2021/12/09 09:03:15;;;;;;;6.72;2.35;;;3.50;99.90;;;;;;5006683;28;20042;-62
2021/12/09 09:05:41;;;;;;;8.95;2.55;;;3.50;99.90;;;;;;5011322;28;20100;-62
2021/12/09 09:08:07;;;;;;;12.05;3.70;;;3.50;99.90;;;;;;4997663;28;20061;-62
2021/12/09 09:10:35;;;;;;;10.45;2.35;;;3.60;99.90;;;;;;5007071;28;20126;-62
2021/12/09 09:13:01;;;;;;;5.70;2.20;;;3.60;99.90;;;;;;5006870;28;20455;-62
2021/12/09 09:15:28;;;;;;;6.88;3.17;;;3.70;99.90;;;;;;5011819;28;20486;-63
2021/12/09 09:17:54;;;;;;;8.73;3.13;;;3.60;99.90;;;;;;5001123;28;20495;-62
2021/12/09 09:20:23;;;;;;;12.77;3.03;;;3.70;99.90;;;;;;5006486;28;20034;-62
2021/12/09 09:22:49;;;;;;;20.35;3.13;;;3.80;99.90;;;;;;5005524;28;20038;-62
2021/12/09 09:25:20;;;;;;;8.40;2.45;;;3.90;99.90;;;;;;5004308;28;20041;-62
2021/12/09 09:27:47;;;;;;;8.98;3.13;;;4.00;99.90;;;;;;5005344;28;20038;-62
2021/12/09 09:30:17;;;;;;;10.65;3.33;;;4.10;99.90;;;;;;5009884;28;20038;-62
2021/12/09 09:32:44;;;;;;;8.38;3.50;;;4.20;99.90;;;;;;5006086;28;20519;-61
2021/12/09 09:35:10;;;;;;;8.80;2.67;;;4.30;99.90;;;;;;5001198;28;20042;-62
2021/12/09 09:37:36;;;;;;;11.85;3.85;;;4.30;99.90;;;;;;5009525;28;20038;-62
2021/12/09 09:40:09;;;;;;;10.43;3.25;;;4.30;99.90;;;;;;5001623;28;20037;-62
2021/12/09 09:45:06;;;;;;;12.32;4.57;;;4.30;99.90;;;;;;5004775;28;20045;-62
2021/12/09 09:47:32;;;;;;;9.60;3.70;;;4.30;99.90;;;;;;5008532;28;20022;-62
2021/12/09 09:49:59;;;;;;;7.97;2.63;;;4.30;99.90;;;;;;5002762;28;20053;-62
2021/12/09 09:52:26;;;;;;;15.77;4.05;;;4.30;99.90;;;;;;5000395;28;20117;-63
2021/12/09 09:54:54;;;;;;;12.68;3.53;;;4.40;99.90;;;;;;5005988;28;20035;-62
2021/12/09 09:57:21;;;;;;;11.45;4.15;;;4.40;99.90;;;;;;5020135;28;20072;-64
2021/12/09 09:59:46;;;;;;;16.33;3.83;;;4.40;99.90;;;;;;5023255;28;20041;-62
2021/12/09 10:02:13;;;;;;;8.45;3.17;;;4.50;99.90;;;;;;5026065;28;20048;-62
2021/12/09 10:04:48;;;;;;;17.48;3.85;;;4.50;99.90;;;;;;5022913;28;20040;-62
2021/12/09 10:07:20;;;;;;;9.13;3.78;;;4.50;99.90;;;;;;5026689;28;20053;-63
2021/12/09 10:09:47;;;;;;;10.88;3.70;;;4.50;99.90;;;;;;5023161;28;20033;-63
2021/12/09 10:12:14;;;;;;;13.73;4.35;;;4.60;99.90;;;;;;5025354;28;20029;-63
2021/12/09 10:14:44;;;;;;;13.15;5.45;;;4.60;99.90;;;;;;5020211;28;20534;-62
2021/12/09 10:17:16;;;;;;;15.70;4.15;;;4.70;99.90;;;;;;5023348;28;20490;-62
2021/12/09 10:19:53;;;;;;;21.40;5.50;;;4.70;99.90;;;;;;5023047;28;20033;-62
2021/12/09 10:22:34;;;;;;;13.52;4.95;;;4.70;99.90;;;;;;5027974;28;20037;-62
2021/12/09 10:25:00;;;;;;;;;;;4.90;99.90;;;;;;5026406;28;20049;-63
2021/12/09 10:27:33;;;;;;;12.25;4.60;;;4.90;99.90;;;;;;5023775;28;20289;-62
2021/12/09 10:30:10;;;;;;;14.18;5.95;;;4.90;99.90;;;;;;5022439;28;20029;-62
2021/12/09 10:32:36;;;;;;;10.32;4.82;;;5.00;99.90;;;;;;5021603;28;20037;-62
2021/12/09 10:35:17;;;;;;;11.93;5.32;;;5.10;99.90;;;;;;5022374;28;20029;-62
2021/12/09 10:37:45;;;;;;;15.25;7.18;;;5.10;99.90;;;;;;5024799;28;20029;-63
2021/12/09 10:40:17;;;;;;;17.40;6.43;;;5.10;99.90;;;;;;5023860;28;20057;-63
2021/12/09 10:42:51;;;;;;;16.63;6.05;;;5.10;99.90;;;;;;5026123;28;20047;-63
2021/12/09 10:45:28;;;;;;;17.63;7.10;;;5.20;99.90;;;;;;5025278;28;20401;-63
2021/12/09 10:48:10;;;;;;;23.77;8.25;;;5.20;99.90;;;;;;5022380;28;20064;-63
2021/12/09 10:50:58;;;;;;;19.90;6.47;;;5.30;99.90;;;;;;5022775;28;20034;-63
2021/12/09 10:56:03;;;;;;;19.73;6.88;;;5.20;99.90;;;;;;5023411;28;20053;-63
2021/12/09 10:58:32;;;;;;;15.32;6.25;;;5.20;99.90;;;;;;5020924;28;20041;-61
2021/12/09 11:01:04;;;;;;;27.20;7.03;;;5.30;99.90;;;;;;5023236;28;20091;-63
2021/12/09 11:03:33;;;;;;;15.05;6.65;;;5.20;99.90;;;;;;5026960;28;20115;-62
2021/12/09 11:06:01;;;;;;;16.15;6.25;;;5.20;99.90;;;;;;5017876;28;20168;-63
2021/12/09 11:08:40;;;;;;;17.13;6.10;;;5.20;99.90;;;;;;5021296;28;20037;-61
2021/12/09 11:11:13;;;;;;;19.52;5.70;;;5.20;99.90;;;;;;5021678;28;20072;-62
2021/12/09 11:13:50;;;;;;;15.85;7.07;;;5.20;99.90;;;;;;5021487;28;20041;-62
2021/12/09 11:16:39;;;;;;;13.82;5.50;;;5.20;99.90;;;;;;5017020;28;20034;-62
2021/12/09 11:19:18;;;;;;;18.95;6.78;;;5.20;99.90;;;;;;5021743;28;20041;-63
2021/12/09 11:21:57;;;;;;;13.98;6.75;;;5.30;99.90;;;;;;5023827;28;20445;-62
2021/12/09 11:24:30;;;;;;;19.33;5.77;;;5.30;99.90;;;;;;5039033;28;20485;-63
2021/12/09 11:26:59;;;;;;;15.82;6.05;;;5.40;99.90;;;;;;5020624;28;20033;-63
2021/12/09 11:29:30;;;;;;;25.25;6.90;;;5.40;99.90;;;;;;5019554;28;20046;-62
2021/12/09 11:32:09;;;;;;;16.35;6.63;;;5.40;99.90;;;;;;5023533;28;20037;-62
2021/12/09 11:34:44;;;;;;;15.45;6.43;;;5.30;99.90;;;;;;5027548;28;20039;-63
2021/12/09 11:37:39;;;;;;;16.23;6.70;;;5.30;99.90;;;;;;5016669;28;20049;-64
2021/12/09 11:40:00;;;;;;;17.33;6.93;;;5.30;99.90;;;;;;5025442;28;20497;-62
2021/12/09 11:42:32;;;;;;;12.38;6.20;;;5.50;99.90;;;;;;5025603;28;20411;-62
2021/12/09 11:44:59;;;;;;;14.40;6.40;;;5.40;99.90;;;;;;5019142;28;20064;-63
2021/12/09 11:47:24;;;;;;;15.68;6.20;;;5.50;99.90;;;;;;5023751;28;20405;-62
2021/12/09 11:49:51;;;;;;;15.90;6.13;;;5.50;99.90;;;;;;5025835;28;20029;-66
2021/12/09 11:52:19;;;;;;;13.80;6.50;;;5.50;99.90;;;;;;5023438;28;20037;-63
2021/12/09 11:54:54;;;;;;;18.77;7.50;;;5.50;99.90;;;;;;5025846;28;20053;-62
2021/12/09 11:57:42;;;;;;;13.93;7.45;;;5.50;99.90;;;;;;5023675;28;20025;-61
2021/12/09 12:12:31;;;;;;;12.18;5.72;;;5.70;99.90;;;;;;5011107;28;20037;-62
2021/12/09 12:26:53;;;;;;;19.67;7.07;;;5.80;99.90;;;;;;5009180;28;20494;-61
2021/12/09 12:29:53;;;;;;;16.77;7.68;;;5.80;99.90;;;;;;5005661;28;20061;-62
2021/12/09 12:32:59;;;;;;;14.70;7.55;;;5.90;99.90;;;;;;5007813;28;20034;-62
2021/12/09 12:41:05;;;;;;;21.30;8.18;;;6.00;99.90;;;;;;5008785;28;20109;-61
2021/12/09 12:43:45;;;;;;;22.17;7.82;;;6.00;99.90;;;;;;5003091;28;20069;-62
2021/12/09 12:46:45;;;;;;;18.70;8.88;;;6.00;99.90;;;;;;5008700;28;20075;-63
2021/12/09 12:51:56;;;;;;;18.10;8.10;;;6.10;99.90;;;;;;5010407;28;20081;-63
2021/12/09 12:54:54;;;;;;;30.50;9.27;;;6.10;99.90;;;;;;5005660;28;20102;-62
2021/12/09 12:57:55;;;;;;;22.48;9.07;;;6.10;99.90;;;;;;5004485;28;20073;-64
2021/12/09 13:00:32;;;;;;;24.88;8.88;;;6.10;99.90;;;;;;5006694;28;20445;-62
2021/12/09 13:03:23;;;;;;;28.83;8.73;;;6.10;99.90;;;;;;5000829;28;20052;-62
2021/12/09 13:11:19;;;;;;;23.05;8.65;;;6.00;99.90;;;;;;5003555;28;20088;-62
2021/12/09 13:16:47;;;;;;;27.85;9.85;;;6.00;99.90;;;;;;5007422;28;20073;-62
2021/12/09 13:19:20;;;;;;;18.83;8.57;;;5.90;99.90;;;;;;5006844;28;20042;-62
2021/12/09 13:21:52;;;;;;;19.67;9.05;;;5.90;99.90;;;;;;5002685;28;20038;-61
2021/12/09 13:30:24;;;;;;;21.98;9.00;;;5.90;99.90;;;;;;5007902;28;20046;-62
2021/12/09 13:33:21;;;;;;;23.23;8.48;;;5.90;99.90;;;;;;5004757;28;20399;-62
2021/12/09 13:36:52;;;;;;;20.15;8.77;;;5.90;99.90;;;;;;5002760;28;20148;-62
2021/12/09 13:47:05;;;;;;;29.08;9.05;;;5.90;99.90;;;;;;5007225;28;20064;-62
2021/12/09 13:55:25;;;;;;;20.25;7.60;;;6.00;99.90;;;;;;4992793;28;20034;-61
2021/12/09 13:58:03;;;;;;;17.20;8.07;;;6.00;99.90;;;;;;5008107;28;20030;-64
2021/12/09 14:00:39;;;;;;;18.42;7.72;;;6.00;99.90;;;;;;5007735;28;20033;-62
2021/12/09 14:03:15;;;;;;;17.33;7.43;;;6.00;99.90;;;;;;5007436;28;20030;-62
2021/12/09 14:05:44;;;;;;;17.80;7.63;;;6.00;99.90;;;;;;5006029;28;20056;-63
2021/12/09 14:08:11;;;;;;;21.70;8.25;;;6.00;99.90;;;;;;5009084;28;20038;-63